sensor_id;sensor_type;location;lat;lon;timestamp;temperature;humidity
35591;DHT22;30355;50.556;10.012;2024-03-02T00:01:51;9.70;66.70
35591;DHT22;30355;50.556;10.012;2024-03-02T00:11:53;9.70;67.00
35591;DHT22;30355;50.556;10.012;2024-03-02T00:21:56;9.70;67.20
35591;DHT22;30355;50.556;10.012;2024-03-02T00:31:58;9.70;67.50
35591;DHT22;30355;50.556;10.012;2024-03-02T00:42:00;9.70;67.80
35591;DHT22;30355;50.556;10.012;2024-03-02T00:52:02;9.70;67.60
35591;DHT22;30355;50.556;10.012;2024-03-02T01:02:05;9.70;67.50
35591;DHT22;30355;50.556;10.012;2024-03-02T01:12:07;9.80;67.50
35591;DHT22;30355;50.556;10.012;2024-03-02T01:22:09;9.80;67.50
35591;DHT22;30355;50.556;10.012;2024-03-02T01:32:11;9.90;67.30
35591;DHT22;30355;50.556;10.012;2024-03-02T01:42:13;9.90;67.30
35591;DHT22;30355;50.556;10.012;2024-03-02T01:52:15;9.90;67.40
35591;DHT22;30355;50.556;10.012;2024-03-02T02:02:17;9.80;67.80
35591;DHT22;30355;50.556;10.012;2024-03-02T02:12:20;9.80;67.80
35591;DHT22;30355;50.556;10.012;2024-03-02T02:22:22;9.70;67.80
35591;DHT22;30355;50.556;10.012;2024-03-02T02:32:24;9.80;68.00
35591;DHT22;30355;50.556;10.012;2024-03-02T02:42:26;9.70;68.10
35591;DHT22;30355;50.556;10.012;2024-03-02T02:52:36;9.80;68.10
35591;DHT22;30355;50.556;10.012;2024-03-02T03:02:42;9.80;68.40
35591;DHT22;30355;50.556;10.012;2024-03-02T03:12:44;9.80;67.90
35591;DHT22;30355;50.556;10.012;2024-03-02T03:22:46;9.70;67.90
35591;DHT22;30355;50.556;10.012;2024-03-02T03:32:48;9.60;67.90
35591;DHT22;30355;50.556;10.012;2024-03-02T03:42:50;9.60;67.90
35591;DHT22;30355;50.556;10.012;2024-03-02T03:52:53;9.60;68.00
35591;DHT22;30355;50.556;10.012;2024-03-02T04:02:55;9.60;68.00
35591;DHT22;30355;50.556;10.012;2024-03-02T04:12:58;9.50;67.90
35591;DHT22;30355;50.556;10.012;2024-03-02T04:23:00;9.50;67.90
35591;DHT22;30355;50.556;10.012;2024-03-02T04:33:02;9.40;67.60
35591;DHT22;30355;50.556;10.012;2024-03-02T04:43:05;9.30;67.50
35591;DHT22;30355;50.556;10.012;2024-03-02T04:53:07;9.10;67.40
35591;DHT22;30355;50.556;10.012;2024-03-02T05:03:10;8.90;67.20
35591;DHT22;30355;50.556;10.012;2024-03-02T05:13:12;8.70;67.40
35591;DHT22;30355;50.556;10.012;2024-03-02T05:23:14;8.60;67.50
35591;DHT22;30355;50.556;10.012;2024-03-02T05:33:16;8.50;67.20
35591;DHT22;30355;50.556;10.012;2024-03-02T05:43:18;8.40;66.80
35591;DHT22;30355;50.556;10.012;2024-03-02T05:53:21;8.30;66.70
35591;DHT22;30355;50.556;10.012;2024-03-02T06:03:23;8.20;66.60
35591;DHT22;30355;50.556;10.012;2024-03-02T06:13:25;8.20;66.70
35591;DHT22;30355;50.556;10.012;2024-03-02T06:23:28;8.10;66.80
35591;DHT22;30355;50.556;10.012;2024-03-02T06:33:30;8.00;67.00
35591;DHT22;30355;50.556;10.012;2024-03-02T06:43:32;7.90;67.10
35591;DHT22;30355;50.556;10.012;2024-03-02T06:53:34;7.90;67.20
35591;DHT22;30355;50.556;10.012;2024-03-02T07:03:36;8.00;67.20
35591;DHT22;30355;50.556;10.012;2024-03-02T07:13:38;8.10;67.40
35591;DHT22;30355;50.556;10.012;2024-03-02T07:23:40;8.20;67.40
35591;DHT22;30355;50.556;10.012;2024-03-02T07:33:44;8.30;67.40
35591;DHT22;30355;50.556;10.012;2024-03-02T07:43:48;8.40;67.60
35591;DHT22;30355;50.556;10.012;2024-03-02T07:53:50;8.60;67.60
35591;DHT22;30355;50.556;10.012;2024-03-02T08:03:52;8.70;67.50
35591;DHT22;30355;50.556;10.012;2024-03-02T08:13:54;8.90;67.40
35591;DHT22;30355;50.556;10.012;2024-03-02T08:23:57;9.00;67.40
35591;DHT22;30355;50.556;10.012;2024-03-02T08:34:00;9.20;67.20
35591;DHT22;30355;50.556;10.012;2024-03-02T08:44:02;9.30;66.80
35591;DHT22;30355;50.556;10.012;2024-03-02T08:54:04;9.50;67.00
35591;DHT22;30355;50.556;10.012;2024-03-02T09:04:06;9.70;66.20
35591;DHT22;30355;50.556;10.012;2024-03-02T09:14:10;10.00;66.00
35591;DHT22;30355;50.556;10.012;2024-03-02T09:24:12;10.20;65.90
35591;DHT22;30355;50.556;10.012;2024-03-02T09:34:19;10.50;66.10
35591;DHT22;30355;50.556;10.012;2024-03-02T09:44:21;10.80;65.50
35591;DHT22;30355;50.556;10.012;2024-03-02T09:54:24;11.00;65.00
35591;DHT22;30355;50.556;10.012;2024-03-02T10:04:27;11.20;64.70
35591;DHT22;30355;50.556;10.012;2024-03-02T10:14:29;11.50;64.00
35591;DHT22;30355;50.556;10.012;2024-03-02T10:24:39;11.80;64.40
35591;DHT22;30355;50.556;10.012;2024-03-02T10:34:44;11.90;62.20
35591;DHT22;30355;50.556;10.012;2024-03-02T10:44:47;12.10;62.90
35591;DHT22;30355;50.556;10.012;2024-03-02T10:54:50;12.30;62.40
35591;DHT22;30355;50.556;10.012;2024-03-02T11:04:54;12.40;61.90
35591;DHT22;30355;50.556;10.012;2024-03-02T11:14:57;12.50;62.10
35591;DHT22;30355;50.556;10.012;2024-03-02T11:25:00;12.80;61.70
35591;DHT22;30355;50.556;10.012;2024-03-02T11:35:02;13.00;61.30
35591;DHT22;30355;50.556;10.012;2024-03-02T11:45:05;13.30;60.90
35591;DHT22;30355;50.556;10.012;2024-03-02T11:55:11;13.60;61.40
35591;DHT22;30355;50.556;10.012;2024-03-02T12:05:15;13.90;61.90
35591;DHT22;30355;50.556;10.012;2024-03-02T12:15:23;14.30;60.30
35591;DHT22;30355;50.556;10.012;2024-03-02T12:25:27;14.60;57.80
35591;DHT22;30355;50.556;10.012;2024-03-02T12:35:30;14.90;57.30
35591;DHT22;30355;50.556;10.012;2024-03-02T12:45:32;15.10;56.00
35591;DHT22;30355;50.556;10.012;2024-03-02T12:55:35;15.30;56.20
35591;DHT22;30355;50.556;10.012;2024-03-02T13:05:37;15.50;55.70
35591;DHT22;30355;50.556;10.012;2024-03-02T13:15:39;15.90;55.50
35591;DHT22;30355;50.556;10.012;2024-03-02T13:25:41;16.10;55.70
35591;DHT22;30355;50.556;10.012;2024-03-02T13:35:43;16.30;55.60
35591;DHT22;30355;50.556;10.012;2024-03-02T13:45:45;16.50;54.60
35591;DHT22;30355;50.556;10.012;2024-03-02T13:55:47;16.60;53.70
35591;DHT22;30355;50.556;10.012;2024-03-02T14:05:49;16.50;53.90
35591;DHT22;30355;50.556;10.012;2024-03-02T14:15:52;16.60;54.40
35591;DHT22;30355;50.556;10.012;2024-03-02T14:25:55;16.80;54.30
35591;DHT22;30355;50.556;10.012;2024-03-02T14:35:57;17.10;55.40
35591;DHT22;30355;50.556;10.012;2024-03-02T14:45:59;17.60;54.80
35591;DHT22;30355;50.556;10.012;2024-03-02T14:56:02;17.80;55.10
35591;DHT22;30355;50.556;10.012;2024-03-02T15:06:04;18.10;55.10
35591;DHT22;30355;50.556;10.012;2024-03-02T15:16:07;18.30;54.60
35591;DHT22;30355;50.556;10.012;2024-03-02T15:26:09;18.50;54.50
35591;DHT22;30355;50.556;10.012;2024-03-02T15:36:12;18.40;53.30
35591;DHT22;30355;50.556;10.012;2024-03-02T15:46:14;18.40;54.00
35591;DHT22;30355;50.556;10.012;2024-03-02T15:56:17;18.30;54.20
35591;DHT22;30355;50.556;10.012;2024-03-02T16:06:19;18.20;53.30
35591;DHT22;30355;50.556;10.012;2024-03-02T16:16:22;17.90;53.50
35591;DHT22;30355;50.556;10.012;2024-03-02T16:26:24;17.50;53.70
35591;DHT22;30355;50.556;10.012;2024-03-02T16:36:26;17.00;53.50
35591;DHT22;30355;50.556;10.012;2024-03-02T16:46:30;16.50;53.90
35591;DHT22;30355;50.556;10.012;2024-03-02T16:56:42;16.00;54.20
35591;DHT22;30355;50.556;10.012;2024-03-02T17:06:45;15.50;54.30
35591;DHT22;30355;50.556;10.012;2024-03-02T17:16:48;15.10;54.40
35591;DHT22;30355;50.556;10.012;2024-03-02T17:26:52;14.60;54.60
35591;DHT22;30355;50.556;10.012;2024-03-02T17:36:54;14.20;55.10
35591;DHT22;30355;50.556;10.012;2024-03-02T17:46:57;13.80;55.60
35591;DHT22;30355;50.556;10.012;2024-03-02T17:57:00;13.40;56.10
35591;DHT22;30355;50.556;10.012;2024-03-02T18:07:02;13.10;56.80
35591;DHT22;30355;50.556;10.012;2024-03-02T18:17:05;12.90;57.60
35591;DHT22;30355;50.556;10.012;2024-03-02T18:27:07;12.70;58.00
35591;DHT22;30355;50.556;10.012;2024-03-02T18:37:10;12.50;58.80
35591;DHT22;30355;50.556;10.012;2024-03-02T18:47:12;12.30;59.40
35591;DHT22;30355;50.556;10.012;2024-03-02T18:57:15;12.00;60.00
35591;DHT22;30355;50.556;10.012;2024-03-02T19:07:17;11.80;60.30
35591;DHT22;30355;50.556;10.012;2024-03-02T19:17:19;11.60;60.80
35591;DHT22;30355;50.556;10.012;2024-03-02T19:27:21;11.40;61.00
35591;DHT22;30355;50.556;10.012;2024-03-02T19:37:23;11.30;61.30
35591;DHT22;30355;50.556;10.012;2024-03-02T19:47:25;11.10;61.80
35591;DHT22;30355;50.556;10.012;2024-03-02T19:57:28;11.00;62.10
35591;DHT22;30355;50.556;10.012;2024-03-02T20:07:31;10.90;62.00
35591;DHT22;30355;50.556;10.012;2024-03-02T20:17:33;10.90;61.90
35591;DHT22;30355;50.556;10.012;2024-03-02T20:27:35;10.80;61.90
35591;DHT22;30355;50.556;10.012;2024-03-02T20:37:37;10.90;61.90
35591;DHT22;30355;50.556;10.012;2024-03-02T20:47:39;10.80;62.00
35591;DHT22;30355;50.556;10.012;2024-03-02T20:57:42;10.80;62.40
35591;DHT22;30355;50.556;10.012;2024-03-02T21:07:44;10.70;63.00
35591;DHT22;30355;50.556;10.012;2024-03-02T21:17:46;10.70;63.30
35591;DHT22;30355;50.556;10.012;2024-03-02T21:27:48;10.60;63.70
35591;DHT22;30355;50.556;10.012;2024-03-02T21:37:50;10.50;63.70
35591;DHT22;30355;50.556;10.012;2024-03-02T21:47:52;10.50;63.90
35591;DHT22;30355;50.556;10.012;2024-03-02T21:57:54;10.40;63.80
35591;DHT22;30355;50.556;10.012;2024-03-02T22:07:56;10.40;64.10
35591;DHT22;30355;50.556;10.012;2024-03-02T22:17:58;10.30;64.30
35591;DHT22;30355;50.556;10.012;2024-03-02T22:28:04;10.30;64.50
35591;DHT22;30355;50.556;10.012;2024-03-02T22:38:07;10.30;65.00
35591;DHT22;30355;50.556;10.012;2024-03-02T22:48:09;10.20;64.60
35591;DHT22;30355;50.556;10.012;2024-03-02T22:58:11;10.20;64.60
35591;DHT22;30355;50.556;10.012;2024-03-02T23:08:13;10.20;64.30
35591;DHT22;30355;50.556;10.012;2024-03-02T23:18:15;10.20;64.40
35591;DHT22;30355;50.556;10.012;2024-03-02T23:28:18;10.20;64.30
35591;DHT22;30355;50.556;10.012;2024-03-02T23:38:20;10.20;64.30
35591;DHT22;30355;50.556;10.012;2024-03-02T23:48:22;10.20;64.70
35591;DHT22;30355;50.556;10.012;2024-03-02T23:58:24;10.20;63.90
